Jaguar — PCKO — position and weather

sailwx.info

Track history (hours):
 
Tides and Currents Weather Stations Pressure Air Temp Water Temp Dewpoint Dewpoint Depression Visibility Wind Speed Wind Dir Waves Ship Positions

Jaguar

Last reported at 2017-Nov-18 13:35 UTC. Time now 2017-Nov-18 14:31 UTC.
Position N 46°51' W 007°03'.

Length 108 m; draft 4.3 m.

Type: Ship. MMSI: 245296000.

Date/timePositionNaut miles runAvg speedWind from/ knotsBaromVisibWave heightAir tempDewpointWater temp
2017-Nov-18 13:35N 46°51' W 007°03'15 9.8
2017-Nov-18 12:03N 46°38' W 007°14'  
2017-Nov-14 18:27N 39°30' W 009°43'5 9.8
2017-Nov-14 17:59N 39°25' W 009°45'5 9.6
2017-Nov-14 17:30N 39°21' W 009°45'510.0
2017-Nov-14 17:00N 39°16' W 009°46'5 9.9
2017-Nov-14 16:30N 39°11' W 009°47'5 9.8
2017-Nov-14 16:00N 39°06' W 009°48'5 9.5
2017-Nov-14 15:30N 39°01' W 009°48'5 9.8
2017-Nov-14 15:00N 38°57' W 009°49'510.0
2017-Nov-14 14:30N 38°52' W 009°50'5 9.9
2017-Nov-14 14:00N 38°47' W 009°51'5 9.9
2017-Nov-14 13:30N 38°42' W 009°51'510.0
2017-Nov-14 13:00N 38°37' W 009°52'5 9.9
2017-Nov-14 12:30N 38°32' W 009°53'5 9.7
2017-Nov-14 12:00N 38°27' W 009°55'5 9.7
2017-Nov-14 11:30N 38°23' W 009°56'5 9.7
2017-Nov-14 10:57N 38°17' W 009°58'6 9.7
2017-Nov-14 10:18N 38°11' W 010°00'3 9.8
2017-Nov-14 10:00N 38°09' W 010°01'5 9.5
2017-Nov-14 09:27N 38°03' W 010°03'4 9.3
2017-Nov-14 09:00N 37°59' W 010°04'12 9.5
2017-Nov-14 07:47N 37°48' W 010°08'3 9.8
2017-Nov-14 07:30N 37°46' W 010°09'510.0
2017-Nov-14 07:00N 37°41' W 010°11'510.0
2017-Nov-14 06:30N 37°36' W 010°12'1210.0
2017-Nov-14 05:17N 37°24' W 010°16'4 9.8
2017-Nov-14 04:53N 37°20' W 010°17'5 9.6
2017-Nov-14 04:23N 37°16' W 010°19'306 9.2
2017-Nov-12 19:11N 32°20' W 011°56'70 9.5
2017-Nov-12 11:47N 31°12' W 012°15'3 9.9
2017-Nov-12 11:30N 31°09' W 012°16'5 9.7
2017-Nov-12 11:00N 31°04' W 012°18'40 9.8
2017-Nov-12 06:54N 30°26' W 012°30'4 9.6
2017-Nov-12 06:30N 30°22' W 012°31'5 9.4
2017-Nov-12 06:00N 30°17' W 012°32'12 9.3
2017-Nov-12 04:45N 30°06' W 012°36'2 9.3
2017-Nov-12 04:30N 30°04' W 012°36'6 9.4
2017-Nov-12 03:52N 29°58' W 012°38'3 9.4
2017-Nov-12 03:30N 29°55' W 012°39'5 9.3
2017-Nov-12 03:00N 29°50' W 012°41'5 9.2
2017-Nov-12 02:30N 29°46' W 012°42'11 9.2
2017-Nov-12 01:16N 29°35' W 012°45'2 9.0
2017-Nov-12 01:00N 29°33' W 012°46'5 9.0
2017-Nov-12 00:30N 29°28' W 012°47'5 8.9
2017-Nov-11 23:53N 29°23' W 012°49'4 9.0
2017-Nov-11 23:28N 29°19' W 012°50'4 9.2
2017-Nov-11 23:00N 29°15' W 012°51'5 9.4
2017-Nov-11 22:29N 29°10' W 012°53'4 9.2
2017-Nov-11 22:00N 29°06' W 012°54'5 8.9
2017-Nov-11 21:25N 29°01' W 012°56'8 8.9
2017-Nov-11 20:32N 28°53' W 012°58'0 8.7
2017-Nov-11 20:30N 28°53' W 012°58'39 9.1
2017-Nov-11 16:10N 28°15' W 013°10'1 8.9
2017-Nov-11 16:00N 28°14' W 013°10'12 8.9
2017-Nov-11 14:40N 28°02' W 013°14'1 8.6
2017-Nov-11 14:30N 28°01' W 013°14'4 8.7
2017-Nov-11 14:00N 27°57' W 013°15'4 8.7
2017-Nov-11 13:30N 27°52' W 013°17'4 8.8
2017-Nov-11 13:00N 27°48' W 013°18'4 8.9
2017-Nov-11 12:30N 27°44' W 013°19'4 8.7
2017-Nov-11 12:00N 27°40' W 013°20'4 8.9
2017-Nov-11 11:30N 27°35' W 013°22'5 9.1
2017-Nov-11 11:00N 27°31' W 013°23'5 9.4
2017-Nov-11 10:30N 27°26' W 013°24'5 9.7
2017-Nov-11 09:59N 27°22' W 013°26'5 9.6
2017-Nov-11 09:29N 27°17' W 013°27'5 9.5
2017-Nov-11 09:00N 27°12' W 013°28'5 9.9
2017-Nov-11 08:30N 27°08' W 013°27'2 4.7
2017-Nov-11 08:00N 27°06' W 013°26'0 0.1
2017-Nov-11 07:30N 27°06' W 013°26'0 0.0
2017-Nov-11 00:27N 27°06' W 013°26'0 0.0
2017-Nov-10 23:03N 27°06' W 013°26'0 0.0
2017-Nov-10 22:48N 27°06' W 013°26'0 0.0
2017-Nov-10 21:30N 27°06' W 013°26'0 0.0
2017-Nov-10 20:21N 27°06' W 013°26'0 0.0
2017-Nov-10 18:24N 27°06' W 013°26'0 0.0
2017-Nov-10 17:54N 27°06' W 013°26'0 0.0
2017-Nov-10 17:24N 27°06' W 013°26'0 0.0
2017-Nov-10 16:57N 27°06' W 013°26'0 0.0
2017-Nov-10 16:27N 27°06' W 013°26'0 0.0
2017-Nov-10 15:57N 27°06' W 013°26'0 0.0
2017-Nov-10 15:24N 27°06' W 013°26'0 0.0
2017-Nov-10 14:57N 27°06' W 013°26'0 0.0
2017-Nov-10 14:27N 27°06' W 013°26'0 0.0
2017-Nov-10 14:00N 27°06' W 013°26'0 0.0
2017-Nov-10 10:48N 27°06' W 013°26'0 0.0
2017-Nov-10 08:03N 27°06' W 013°26'0 0.0
2017-Nov-10 08:00N 27°06' W 013°26'0 0.0
2017-Nov-10 07:15N 27°06' W 013°26'0 0.0
2017-Nov-10 07:00N 27°06' W 013°26'0 0.0
2017-Nov-10 06:21N 27°06' W 013°26'0 0.0
2017-Nov-10 05:48N 27°06' W 013°26'0 0.0
2017-Nov-10 05:24N 27°06' W 013°26'0 0.0
2017-Nov-10 04:48N 27°06' W 013°26'0 0.0
2017-Nov-10 04:09N 27°06' W 013°26'0 0.0
2017-Nov-10 03:51N 27°06' W 013°26'0 0.0
2017-Nov-10 03:24N 27°06' W 013°26'0 0.0
2017-Nov-09 23:15N 27°06' W 013°26'0 0.0
2017-Nov-09 23:00N 27°06' W 013°26'0 0.0
2017-Nov-09 21:42N 27°06' W 013°26'0 0.0
2017-Nov-09 21:27N 27°06' W 013°26'0 0.0
2017-Nov-09 21:00N 27°06' W 013°26'0 0.0
2017-Nov-09 20:30N 27°06' W 013°26'0 0.0
2017-Nov-09 16:51N 27°06' W 013°26'0 0.0
2017-Nov-09 16:21N 27°06' W 013°26'0 0.0
2017-Nov-09 15:51N 27°06' W 013°26'0 0.0
2017-Nov-09 15:24N 27°06' W 013°26'0 0.0
2017-Nov-09 13:54N 27°06' W 013°26'0 0.0
2017-Nov-09 05:54N 27°06' W 013°26'0 0.0
2017-Nov-09 01:36N 27°06' W 013°26'0 0.0
2017-Nov-09 01:24N 27°06' W 013°26'0 0.0
2017-Nov-09 00:54N 27°06' W 013°26'0 0.0
2017-Nov-09 00:24N 27°06' W 013°26'0 0.0
2017-Nov-08 14:06N 27°06' W 013°26'0 0.0
2017-Nov-08 13:36N 27°06' W 013°26'  
Track history (hours):
 
Tides and Currents Weather Stations Pressure Air Temp Water Temp Dewpoint Dewpoint Depression Visibility Wind Speed Wind Dir Waves Ship Positions

Jaguar

Last reported at 2017-Nov-18 13:35 UTC. Time now 2017-Nov-18 14:31 UTC.
Position N 46°51' W 007°03'.

Length 108 m; draft 4.3 m.

Type: Ship. MMSI: 245296000.

Date/timePositionNaut miles runAvg speedWind from/ knotsBaromVisibWave heightAir tempDewpointWater temp
2017-Nov-18 13:35N 46°51' W 007°03'15 9.8
2017-Nov-18 12:03N 46°38' W 007°14'  
2017-Nov-14 18:27N 39°30' W 009°43'5 9.8
2017-Nov-14 17:59N 39°25' W 009°45'5 9.6
2017-Nov-14 17:30N 39°21' W 009°45'510.0
2017-Nov-14 17:00N 39°16' W 009°46'5 9.9
2017-Nov-14 16:30N 39°11' W 009°47'5 9.8
2017-Nov-14 16:00N 39°06' W 009°48'5 9.5
2017-Nov-14 15:30N 39°01' W 009°48'5 9.8
2017-Nov-14 15:00N 38°57' W 009°49'510.0
2017-Nov-14 14:30N 38°52' W 009°50'5 9.9
2017-Nov-14 14:00N 38°47' W 009°51'5 9.9
2017-Nov-14 13:30N 38°42' W 009°51'510.0
2017-Nov-14 13:00N 38°37' W 009°52'5 9.9
2017-Nov-14 12:30N 38°32' W 009°53'5 9.7
2017-Nov-14 12:00N 38°27' W 009°55'5 9.7
2017-Nov-14 11:30N 38°23' W 009°56'5 9.7
2017-Nov-14 10:57N 38°17' W 009°58'6 9.7
2017-Nov-14 10:18N 38°11' W 010°00'3 9.8
2017-Nov-14 10:00N 38°09' W 010°01'5 9.5
2017-Nov-14 09:27N 38°03' W 010°03'4 9.3
2017-Nov-14 09:00N 37°59' W 010°04'12 9.5
2017-Nov-14 07:47N 37°48' W 010°08'3 9.8
2017-Nov-14 07:30N 37°46' W 010°09'510.0
2017-Nov-14 07:00N 37°41' W 010°11'510.0
2017-Nov-14 06:30N 37°36' W 010°12'1210.0
2017-Nov-14 05:17N 37°24' W 010°16'4 9.8
2017-Nov-14 04:53N 37°20' W 010°17'5 9.6
2017-Nov-14 04:23N 37°16' W 010°19'306 9.2
2017-Nov-12 19:11N 32°20' W 011°56'70 9.5
2017-Nov-12 11:47N 31°12' W 012°15'3 9.9
2017-Nov-12 11:30N 31°09' W 012°16'5 9.7
2017-Nov-12 11:00N 31°04' W 012°18'40 9.8
2017-Nov-12 06:54N 30°26' W 012°30'4 9.6
2017-Nov-12 06:30N 30°22' W 012°31'5 9.4
2017-Nov-12 06:00N 30°17' W 012°32'12 9.3
2017-Nov-12 04:45N 30°06' W 012°36'2 9.3
2017-Nov-12 04:30N 30°04' W 012°36'6 9.4
2017-Nov-12 03:52N 29°58' W 012°38'3 9.4
2017-Nov-12 03:30N 29°55' W 012°39'5 9.3
2017-Nov-12 03:00N 29°50' W 012°41'5 9.2
2017-Nov-12 02:30N 29°46' W 012°42'11 9.2
2017-Nov-12 01:16N 29°35' W 012°45'2 9.0
2017-Nov-12 01:00N 29°33' W 012°46'5 9.0
2017-Nov-12 00:30N 29°28' W 012°47'5 8.9
2017-Nov-11 23:53N 29°23' W 012°49'4 9.0
2017-Nov-11 23:28N 29°19' W 012°50'4 9.2
2017-Nov-11 23:00N 29°15' W 012°51'5 9.4
2017-Nov-11 22:29N 29°10' W 012°53'4 9.2
2017-Nov-11 22:00N 29°06' W 012°54'5 8.9
2017-Nov-11 21:25N 29°01' W 012°56'8 8.9
2017-Nov-11 20:32N 28°53' W 012°58'0 8.7
2017-Nov-11 20:30N 28°53' W 012°58'39 9.1
2017-Nov-11 16:10N 28°15' W 013°10'1 8.9
2017-Nov-11 16:00N 28°14' W 013°10'12 8.9
2017-Nov-11 14:40N 28°02' W 013°14'1 8.6
2017-Nov-11 14:30N 28°01' W 013°14'4 8.7
2017-Nov-11 14:00N 27°57' W 013°15'4 8.7
2017-Nov-11 13:30N 27°52' W 013°17'4 8.8
2017-Nov-11 13:00N 27°48' W 013°18'4 8.9
2017-Nov-11 12:30N 27°44' W 013°19'4 8.7
2017-Nov-11 12:00N 27°40' W 013°20'4 8.9
2017-Nov-11 11:30N 27°35' W 013°22'5 9.1
2017-Nov-11 11:00N 27°31' W 013°23'5 9.4
2017-Nov-11 10:30N 27°26' W 013°24'5 9.7
2017-Nov-11 09:59N 27°22' W 013°26'5 9.6
2017-Nov-11 09:29N 27°17' W 013°27'5 9.5
2017-Nov-11 09:00N 27°12' W 013°28'5 9.9
2017-Nov-11 08:30N 27°08' W 013°27'2 4.7
2017-Nov-11 08:00N 27°06' W 013°26'0 0.1
2017-Nov-11 07:30N 27°06' W 013°26'0 0.0
2017-Nov-11 00:27N 27°06' W 013°26'0 0.0
2017-Nov-10 23:03N 27°06' W 013°26'0 0.0
2017-Nov-10 22:48N 27°06' W 013°26'0 0.0
2017-Nov-10 21:30N 27°06' W 013°26'0 0.0
2017-Nov-10 20:21N 27°06' W 013°26'0 0.0
2017-Nov-10 18:24N 27°06' W 013°26'0 0.0
2017-Nov-10 17:54N 27°06' W 013°26'0 0.0
2017-Nov-10 17:24N 27°06' W 013°26'0 0.0
2017-Nov-10 16:57N 27°06' W 013°26'0 0.0
2017-Nov-10 16:27N 27°06' W 013°26'0 0.0
2017-Nov-10 15:57N 27°06' W 013°26'0 0.0
2017-Nov-10 15:24N 27°06' W 013°26'0 0.0
2017-Nov-10 14:57N 27°06' W 013°26'0 0.0
2017-Nov-10 14:27N 27°06' W 013°26'0 0.0
2017-Nov-10 14:00N 27°06' W 013°26'0 0.0
2017-Nov-10 10:48N 27°06' W 013°26'0 0.0
2017-Nov-10 08:03N 27°06' W 013°26'0 0.0
2017-Nov-10 08:00N 27°06' W 013°26'0 0.0
2017-Nov-10 07:15N 27°06' W 013°26'0 0.0
2017-Nov-10 07:00N 27°06' W 013°26'0 0.0
2017-Nov-10 06:21N 27°06' W 013°26'0 0.0
2017-Nov-10 05:48N 27°06' W 013°26'0 0.0
2017-Nov-10 05:24N 27°06' W 013°26'0 0.0
2017-Nov-10 04:48N 27°06' W 013°26'0 0.0
2017-Nov-10 04:09N 27°06' W 013°26'0 0.0
2017-Nov-10 03:51N 27°06' W 013°26'0 0.0
2017-Nov-10 03:24N 27°06' W 013°26'0 0.0
2017-Nov-09 23:15N 27°06' W 013°26'0 0.0
2017-Nov-09 23:00N 27°06' W 013°26'0 0.0
2017-Nov-09 21:42N 27°06' W 013°26'0 0.0
2017-Nov-09 21:27N 27°06' W 013°26'0 0.0
2017-Nov-09 21:00N 27°06' W 013°26'0 0.0
2017-Nov-09 20:30N 27°06' W 013°26'0 0.0
2017-Nov-09 16:51N 27°06' W 013°26'0 0.0
2017-Nov-09 16:21N 27°06' W 013°26'0 0.0
2017-Nov-09 15:51N 27°06' W 013°26'0 0.0
2017-Nov-09 15:24N 27°06' W 013°26'0 0.0
2017-Nov-09 13:54N 27°06' W 013°26'0 0.0
2017-Nov-09 05:54N 27°06' W 013°26'0 0.0
2017-Nov-09 01:36N 27°06' W 013°26'0 0.0
2017-Nov-09 01:24N 27°06' W 013°26'0 0.0
2017-Nov-09 00:54N 27°06' W 013°26'0 0.0
2017-Nov-09 00:24N 27°06' W 013°26'0 0.0
2017-Nov-08 14:06N 27°06' W 013°26'0 0.0
2017-Nov-08 13:36N 27°06' W 013°26'  

Dump ship's entire track history